Time;durP1;ratioP1;P1;durP2;ratioP2;P2;SDS_P1;SDS_P2;PMS_P1;PMS_P2;Temp;Humidity;BMP_temperature;BMP_pressure;BME280_temperature;BME280_humidity;BME280_pressure;Samples;Min_cycle;Max_cycle;Signal;HPM_P1;HPM_P2
2022/05/15 00:02:34;;;;;;;6.10;4.63;;;;;;;21.08;67.58;99450.34;5114962;28;20178;-71
2022/05/15 00:05:01;;;;;;;5.37;5.07;;;;;;;21.05;67.86;99448.16;5113659;28;20550;-71
2022/05/15 00:07:28;;;;;;;5.20;4.90;;;;;;;21.07;67.84;99446.00;5116184;28;20622;-71
2022/05/15 00:09:55;;;;;;;5.50;5.20;;;;;;;21.16;67.64;99444.44;5115506;28;20272;-71
2022/05/15 00:12:22;;;;;;;5.27;4.97;;;;;;;21.12;67.68;99443.34;5115192;28;20247;-71
2022/05/15 00:14:50;;;;;;;5.30;5.00;;;;;;;21.07;67.38;99447.91;5115419;28;20222;-71
2022/05/15 00:17:17;;;;;;;5.73;5.20;;;;;;;21.09;67.39;99449.25;5114447;28;20252;-70
2022/05/15 00:19:45;;;;;;;5.80;5.30;;;;;;;21.12;67.12;99440.63;5114797;28;20206;-71
2022/05/15 00:22:14;;;;;;;4.87;4.60;;;;;;;21.13;67.12;99454.94;5114954;28;20194;-71
2022/05/15 00:24:40;;;;;;;5.43;4.87;;;;;;;21.21;66.89;99444.44;5114630;28;20277;-71
2022/05/15 00:27:08;;;;;;;5.10;4.90;;;;;;;21.16;66.95;99443.63;5115189;28;20194;-71
2022/05/15 00:29:34;;;;;;;5.33;4.50;;;;;;;21.11;66.70;99451.72;5121992;27;20642;-72
2022/05/15 00:32:01;;;;;;;5.13;4.73;;;;;;;21.12;66.80;99448.75;5135048;27;20194;-71
2022/05/15 00:34:28;;;;;;;4.97;4.67;;;;;;;21.10;66.64;99448.19;5136155;27;20210;-71
2022/05/15 00:36:56;;;;;;;5.13;4.73;;;;;;;21.03;66.97;99446.81;5134563;27;20554;-71
2022/05/15 00:39:23;;;;;;;5.00;4.70;;;;;;;20.94;67.22;99451.09;5134810;27;20662;-71
2022/05/15 00:41:49;;;;;;;4.80;4.50;;;;;;;20.94;67.18;99456.50;5134851;27;20261;-71
2022/05/15 00:44:16;;;;;;;5.13;4.77;;;;;;;20.91;66.97;99451.59;5134732;27;20194;-72
2022/05/15 00:46:43;;;;;;;4.90;4.60;;;;;;;20.97;66.38;99448.69;5134477;27;20190;-72
2022/05/15 00:49:12;;;;;;;4.63;4.23;;;;;;;20.87;66.60;99447.78;5134921;27;20233;-72
2022/05/15 00:51:43;;;;;;;4.83;4.50;;;;;;;20.83;66.74;99452.09;5134376;27;20194;-72
2022/05/15 00:54:16;;;;;;;5.10;4.60;;;;;;;20.86;66.64;99449.66;5134355;27;20231;-72
2022/05/15 00:56:49;;;;;;;4.70;4.43;;;;;;;20.88;66.75;99452.94;5134326;27;20182;-72
2022/05/15 00:59:19;;;;;;;5.30;4.80;;;;;;;20.88;66.79;99452.09;5134482;27;20186;-71
2022/05/15 01:01:46;;;;;;;4.23;3.93;;;;;;;20.84;66.87;99451.84;5134172;27;20178;-72
2022/05/15 01:04:13;;;;;;;5.23;4.23;;;;;;;20.94;66.35;99454.59;5134108;27;20617;-72
2022/05/15 01:06:43;;;;;;;5.13;4.10;;;;;;;20.90;66.46;99464.28;5134367;27;20194;-72
2022/05/15 01:09:12;;;;;;;4.40;3.97;;;;;;;20.83;66.16;99458.31;5134200;27;20663;-72
2022/05/15 01:11:39;;;;;;;4.00;3.80;;;;;;;20.81;65.88;99446.94;5134264;27;20200;-71
2022/05/15 01:14:10;;;;;;;4.60;4.23;;;;;;;20.70;66.13;99450.66;5134384;27;20204;-71
2022/05/15 01:16:37;;;;;;;5.10;4.30;;;;;;;20.85;65.89;99448.06;5134941;27;20223;-71
2022/05/15 01:19:05;;;;;;;4.90;3.97;;;;;;;20.86;65.22;99457.78;5134365;27;20194;-71
2022/05/15 01:21:36;;;;;;;4.23;3.87;;;;;;;20.91;64.95;99447.03;5134011;27;20186;-71
2022/05/15 01:24:05;;;;;;;4.53;4.00;;;;;;;20.90;64.68;99458.88;5133738;27;20545;-71
2022/05/15 01:26:33;;;;;;;4.50;4.10;;;;;;;20.86;64.61;99452.38;5133871;27;20198;-71
2022/05/15 01:29:00;;;;;;;5.13;4.63;;;;;;;20.84;64.78;99457.22;5133541;27;20306;-71
2022/05/15 01:31:28;;;;;;;4.80;4.40;;;;;;;20.90;64.83;99452.69;5134204;27;20204;-71
2022/05/15 01:33:54;;;;;;;4.60;3.60;;;;;;;20.86;64.66;99452.38;5133949;27;20609;-71
2022/05/15 01:36:24;;;;;;;4.50;4.10;;;;;;;20.87;64.34;99455.91;5133807;27;20190;-71
2022/05/15 01:38:53;;;;;;;4.70;4.30;;;;;;;20.78;64.53;99458.28;5134333;27;20201;-70
2022/05/15 01:41:20;;;;;;;5.23;4.03;;;;;;;20.79;64.27;99467.19;5133721;27;20198;-70
2022/05/15 01:43:49;;;;;;;8.00;3.80;;;;;;;20.69;64.49;99454.44;5133357;27;20198;-69
2022/05/15 01:46:16;;;;;;;4.43;4.03;;;;;;;20.65;64.54;99450.66;5133921;27;20194;-70
2022/05/15 01:48:43;;;;;;;5.50;4.30;;;;;;;20.66;64.52;99459.56;5133553;27;20230;-70
2022/05/15 01:51:09;;;;;;;4.27;4.07;;;;;;;20.67;64.55;99459.31;5133254;27;20247;-70
2022/05/15 01:53:36;;;;;;;4.73;4.33;;;;;;;20.67;64.39;99461.19;5133555;27;20194;-70
2022/05/15 01:56:05;;;;;;;4.83;3.87;;;;;;;20.70;64.45;99466.88;5133188;27;20723;-70
2022/05/15 01:58:33;;;;;;;4.10;3.77;;;;;;;20.71;64.31;99473.91;5133107;27;20570;-70
2022/05/15 02:01:00;;;;;;;5.00;4.53;;;;;;;20.58;64.90;99474.34;5133413;27;20193;-70
2022/05/15 02:03:27;;;;;;;4.00;3.80;;;;;;;20.62;64.56;99477.38;5133423;27;20193;-70
2022/05/15 02:05:53;;;;;;;4.27;4.00;;;;;;;20.63;64.84;99477.09;5133067;27;20609;-70
2022/05/15 02:08:20;;;;;;;6.67;4.00;;;;;;;20.58;64.91;99477.88;5133291;27;20225;-70
2022/05/15 02:10:47;;;;;;;4.27;3.87;;;;;;;20.58;65.14;99480.56;5132986;27;20246;-71
2022/05/15 02:13:15;;;;;;;4.47;4.07;;;;;;;20.67;64.90;99483.59;5133291;27;20190;-71
2022/05/15 02:15:42;;;;;;;4.13;3.90;;;;;;;20.63;65.30;99479.81;5133505;27;20193;-71
2022/05/15 02:18:09;;;;;;;4.00;3.80;;;;;;;20.42;65.68;99453.78;5133133;27;20560;-71
2022/05/15 02:20:36;;;;;;;4.37;4.00;;;;;;;20.55;65.91;99483.00;5132817;27;20215;-70
2022/05/15 02:23:02;;;;;;;3.80;3.50;;;;;;;20.63;65.76;99483.28;5132882;27;20716;-70
2022/05/15 02:25:31;;;;;;;4.53;4.20;;;;;;;20.54;65.92;99486.75;5133155;27;20313;-71
2022/05/15 02:27:58;;;;;;;3.97;3.70;;;;;;;20.59;66.13;99492.19;5134258;27;20193;-71
2022/05/15 02:30:27;;;;;;;4.10;3.80;;;;;;;20.59;66.24;99494.91;5137383;27;20282;-71
2022/05/15 02:32:54;;;;;;;4.93;4.57;;;;;;;20.49;66.46;99492.13;5137050;27;20215;-70
2022/05/15 02:35:21;;;;;;;4.90;3.93;;;;;;;20.50;65.98;99491.84;5136985;27;20196;-70
2022/05/15 02:37:48;;;;;;;4.13;3.80;;;;;;;20.45;66.19;99501.81;5136945;27;20196;-70
2022/05/15 02:40:18;;;;;;;8.17;3.93;;;;;;;20.41;66.24;99495.28;5137741;27;20225;-71
2022/05/15 02:42:45;;;;;;;4.57;4.27;;;;;;;20.44;65.84;99500.19;5137221;27;20190;-71
2022/05/15 02:45:12;;;;;;;4.30;4.10;;;;;;;20.34;65.89;99500.13;5136835;27;20289;-69
2022/05/15 02:47:41;;;;;;;4.80;4.40;;;;;;;20.32;66.01;99494.16;5136540;27;20189;-69
2022/05/15 02:52:55;;;;;;;4.50;4.20;;;;;;;20.32;65.93;99491.47;5137065;27;20181;-70
2022/05/15 02:55:23;;;;;;;4.60;4.20;;;;;;;20.20;66.59;99494.34;5136645;27;20247;-70
2022/05/15 02:57:50;;;;;;;4.57;4.30;;;;;;;20.24;66.45;99494.63;5136605;27;20674;-71
2022/05/15 03:00:19;;;;;;;4.70;4.40;;;;;;;20.21;66.21;99493.25;5137437;27;20198;-71
2022/05/15 03:02:47;;;;;;;5.30;4.80;;;;;;;20.22;66.77;99502.97;5137081;27;20186;-71
2022/05/15 03:05:16;;;;;;;5.13;4.07;;;;;;;20.18;66.87;99506.47;5136434;27;20222;-70
2022/05/15 03:07:43;;;;;;;4.10;3.90;;;;;;;20.21;66.69;99506.75;5136393;27;20227;-70
2022/05/15 03:10:12;;;;;;;5.13;4.23;;;;;;;20.19;66.41;99508.91;5136240;27;20257;-71
2022/05/15 03:12:39;;;;;;;4.53;4.33;;;;;;;20.25;66.35;99515.97;5136549;27;20189;-71
2022/05/15 03:15:07;;;;;;;4.70;4.40;;;;;;;20.08;66.37;99490.97;5137123;27;20251;-71
2022/05/15 03:17:34;;;;;;;4.53;4.23;;;;;;;20.22;66.57;99511.06;5137040;27;20194;-70
2022/05/15 03:20:02;;;;;;;5.23;4.60;;;;;;;20.34;66.34;99522.50;5136124;27;20194;-70
2022/05/15 03:22:29;;;;;;;4.93;4.53;;;;;;;20.35;65.84;99512.53;5136167;27;20194;-70
2022/05/15 03:24:56;;;;;;;4.60;4.30;;;;;;;20.37;66.35;99526.56;5136065;27;20663;-71
2022/05/15 03:27:22;;;;;;;4.73;4.40;;;;;;;20.33;66.06;99526.28;5136846;27;20194;-71
2022/05/15 03:29:49;;;;;;;4.20;3.87;;;;;;;20.29;66.23;99524.34;5135865;27;20271;-71
2022/05/15 03:32:16;;;;;;;4.97;4.67;;;;;;;20.32;66.05;99529.22;5135914;27;20193;-71
2022/05/15 03:34:42;;;;;;;6.17;4.57;;;;;;;20.28;66.04;99525.41;5135933;27;20665;-70
2022/05/15 03:37:10;;;;;;;4.83;4.57;;;;;;;20.39;65.79;99532.53;5136096;27;20251;-70
2022/05/15 03:39:37;;;;;;;7.03;4.93;;;;;;;20.46;65.73;99530.44;5135509;27;20663;-71
2022/05/15 03:42:04;;;;;;;4.50;4.20;;;;;;;20.50;65.40;99536.94;5136334;27;20540;-71
2022/05/15 03:44:31;;;;;;;4.53;4.13;;;;;;;20.52;65.14;99530.22;5135698;27;20190;-71
2022/05/15 03:46:58;;;;;;;5.00;4.20;;;;;;;20.69;65.04;99540.84;5135700;27;20654;-72
2022/05/15 03:49:25;;;;;;;4.27;3.97;;;;;;;20.85;64.72;99539.88;5135607;27;20274;-72
2022/05/15 03:51:51;;;;;;;4.20;3.80;;;;;;;20.88;63.96;99542.03;5135980;27;20211;-73
2022/05/15 03:54:19;;;;;;;4.33;4.03;;;;;;;21.08;63.20;99544.06;5135531;27;20730;-72
2022/05/15 03:56:52;;;;;;;4.40;4.10;;;;;;;21.29;63.00;99546.63;5135376;27;20662;-72
2022/05/15 03:59:22;;;;;;;4.17;3.97;;;;;;;21.43;61.25;99553.13;5135448;27;20254;-72
2022/05/15 04:01:49;;;;;;;8.03;4.33;;;;;;;21.45;60.97;99553.72;5136071;27;20190;-73
2022/05/15 04:04:16;;;;;;;4.80;3.63;;;;;;;21.55;60.83;99551.03;5135619;27;20205;-72
2022/05/15 04:06:43;;;;;;;4.90;4.30;;;;;;;22.03;60.07;99553.34;5135248;27;20194;-73
2022/05/15 04:09:10;;;;;;;6.07;4.87;;;;;;;22.94;57.40;99559.53;5135439;27;20286;-72
2022/05/15 04:11:38;;;;;;;4.43;4.10;;;;;;;23.85;54.05;99561.66;5135711;27;20190;-72
2022/05/15 04:14:05;;;;;;;4.07;3.87;;;;;;;24.55;51.71;99554.94;5135310;27;20240;-73
2022/05/15 04:16:32;;;;;;;4.60;4.10;;;;;;;25.36;50.79;99574.00;5135627;27;20383;-73
2022/05/15 04:18:59;;;;;;;4.23;3.93;;;;;;;26.25;47.48;99587.50;5135378;27;20245;-71
2022/05/15 04:21:26;;;;;;;3.97;3.67;;;;;;;26.56;47.12;99585.91;5135205;27;20266;-70
2022/05/15 04:23:53;;;;;;;4.00;3.60;;;;;;;27.48;43.71;99588.31;5135266;27;20186;-68
2022/05/15 04:26:20;;;;;;;3.97;3.63;;;;;;;27.74;43.57;99591.34;5134919;27;20198;-70
2022/05/15 04:28:48;;;;;;;3.73;3.33;;;;;;;27.98;42.05;99594.66;5134725;27;20193;-69
2022/05/15 04:31:15;;;;;;;4.77;3.70;;;;;;;28.26;41.39;99594.28;5133944;27;20229;-71
2022/05/15 04:33:41;;;;;;;3.40;3.20;;;;;;;28.51;40.88;99588.22;5135247;27;20190;-71
2022/05/15 04:36:08;;;;;;;4.27;3.70;;;;;;;29.06;39.27;99588.75;5135012;27;20193;-70
2022/05/15 04:38:35;;;;;;;3.70;3.40;;;;;;;29.51;38.12;99595.69;5135111;27;20301;-72
2022/05/15 04:41:02;;;;;;;6.23;3.40;;;;;;;29.46;38.03;99582.16;5134647;27;20247;-71
2022/05/15 04:43:28;;;;;;;5.77;3.60;;;;;;;29.68;38.13;99590.31;5134534;27;20185;-71
2022/05/15 04:45:56;;;;;;;4.37;3.53;;;;;;;30.04;36.41;99590.84;5134528;27;20194;-71
2022/05/15 04:48:23;;;;;;;3.73;3.33;;;;;;;30.30;36.28;99585.41;5134728;27;20230;-72
2022/05/15 04:50:50;;;;;;;3.63;3.27;;;;;;;30.18;37.24;99591.56;5133975;27;20214;-71
2022/05/15 04:53:16;;;;;;;3.23;3.03;;;;;;;29.86;36.24;99599.38;5134498;27;20190;-71
2022/05/15 04:55:43;;;;;;;3.20;3.00;;;;;;;30.30;36.22;99582.69;5134298;27;20612;-72
2022/05/15 04:58:10;;;;;;;3.20;3.00;;;;;;;30.81;34.79;99594.44;5134571;27;20185;-72
2022/05/15 05:00:36;;;;;;;9.27;2.70;;;;;;;31.56;33.94;99583.50;5134242;27;20206;-71
2022/05/15 05:03:05;;;;;;;4.50;3.13;;;;;;;31.53;34.06;99572.38;5134116;27;20558;-73
2022/05/15 05:05:33;;;;;;;4.03;2.93;;;;;;;32.17;32.40;99576.50;5134065;27;20258;-70
2022/05/15 05:07:59;;;;;;;4.47;3.20;;;;;;;30.80;34.49;99581.84;5135151;27;20273;-70
2022/05/15 05:10:26;;;;;;;3.43;3.17;;;;;;;29.70;35.60;99579.84;5134195;27;20217;-70
2022/05/15 05:12:53;;;;;;;3.80;3.43;;;;;;;29.27;37.08;99581.59;5134209;27;20242;-70
2022/05/15 05:15:20;;;;;;;8.27;3.57;;;;;;;27.66;39.33;99575.69;5133842;27;20190;-68
2022/05/15 05:17:46;;;;;;;5.80;3.60;;;;;;;27.44;41.14;99578.34;5133870;27;20205;-68
2022/05/15 05:20:15;;;;;;;4.40;3.90;;;;;;;28.08;39.61;99580.78;5134399;27;20194;-70
2022/05/15 05:22:42;;;;;;;4.60;3.40;;;;;;;28.92;37.83;99585.28;5134892;27;20247;-71
2022/05/15 05:25:11;;;;;;;7.07;3.33;;;;;;;30.13;37.56;99583.44;5133648;27;20635;-71
2022/05/15 05:27:39;;;;;;;6.90;3.63;;;;;;;30.98;35.99;99577.91;5133464;27;20571;-71
2022/05/15 05:30:08;;;;;;;6.33;2.83;;;;;;;31.66;34.54;99582.31;5133901;27;20309;-71
2022/05/15 05:32:35;;;;;;;3.63;3.33;;;;;;;32.07;32.79;99587.91;5134169;27;20254;-73
2022/05/15 05:35:01;;;;;;;5.50;3.13;;;;;;;32.32;32.52;99589.66;5133620;27;20739;-75
2022/05/15 05:37:30;;;;;;;6.80;3.23;;;;;;;32.29;31.32;99585.63;5133543;27;20251;-75
2022/05/15 05:39:57;;;;;;;3.80;3.27;;;;;;;32.84;30.82;99588.88;5133793;27;20197;-71
2022/05/15 05:42:23;;;;;;;3.50;3.17;;;;;;;33.08;30.09;99597.16;5133412;27;20250;-71
2022/05/15 05:44:50;;;;;;;11.90;3.57;;;;;;;32.73;29.66;99589.59;5134484;27;20190;-71
2022/05/15 05:47:24;;;;;;;4.40;3.47;;;;;;;33.04;30.22;99595.47;5134435;27;20186;-72
2022/05/15 05:49:50;;;;;;;3.73;3.33;;;;;;;33.25;29.65;99585.97;5134610;27;20229;-69
2022/05/15 05:52:17;;;;;;;4.77;2.93;;;;;;;33.16;29.49;99587.22;5128844;27;20221;-69
2022/05/15 05:54:45;;;;;;;4.60;3.35;;;;;;;33.74;28.94;99585.97;5131325;27;20239;-68
2022/05/15 05:57:12;;;;;;;8.53;3.67;;;;;;;33.98;28.94;99591.50;5133195;27;20557;-68
2022/05/15 05:59:39;;;;;;;3.63;3.30;;;;;;;33.83;28.81;99587.50;5131526;27;20190;-69
2022/05/15 06:02:07;;;;;;;3.73;2.93;;;;;;;34.09;28.59;99587.91;5117231;27;20194;-69
2022/05/15 06:04:44;;;;;;;8.48;3.58;;;;;;;34.33;28.99;99578.78;5129177;27;20197;-69
2022/05/15 06:07:13;;;;;;;3.75;2.35;;;;;;;34.48;28.33;99581.59;5138984;27;20672;-69
2022/05/15 06:09:42;;;;;;;3.03;2.92;;;;;;;34.61;28.33;99580.38;5133728;27;20645;-69
2022/05/15 06:12:12;;;;;;;3.90;2.97;;;;;;;34.59;27.90;99579.13;5113216;27;20191;-68
2022/05/15 06:14:39;;;;;;;4.07;2.80;;;;;;;34.18;28.36;99579.50;5111857;28;20244;-69
2022/05/15 06:17:06;;;;;;;6.15;2.80;;;;;;;34.24;28.10;99572.56;5110331;28;20194;-68
2022/05/15 06:19:34;;;;;;;5.88;3.25;;;;;;;34.04;28.33;99576.34;5120702;27;20193;-69
2022/05/15 06:22:01;;;;;;;29.25;4.32;;;;;;;33.80;28.74;99573.59;5131049;27;20186;-70
2022/05/15 06:24:28;;;;;;;11.23;3.15;;;;;;;34.10;28.45;99572.16;5131626;27;20189;-69
2022/05/15 06:26:57;;;;;;;3.67;2.53;;;;;;;32.75;28.61;99571.59;5132372;27;20617;-69
2022/05/15 06:29:25;;;;;;;5.07;2.87;;;;;;;32.06;29.63;99559.59;5132343;27;20193;-70
2022/05/15 06:31:52;;;;;;;3.23;2.50;;;;;;;32.87;28.42;99571.66;5132363;27;20281;-69
2022/05/15 06:34:19;;;;;;;4.57;2.17;;;;;;;32.70;27.61;99577.31;5132609;27;20246;-69
2022/05/15 06:36:46;;;;;;;3.33;2.20;;;;;;;32.39;28.52;99567.94;5121961;27;20190;-69
2022/05/15 06:39:12;;;;;;;7.73;2.33;;;;;;;32.00;28.11;99576.63;5112014;28;20751;-69
2022/05/15 06:41:39;;;;;;;4.30;2.47;;;;;;;31.25;29.28;99572.03;5112996;28;20679;-69
2022/05/15 06:44:07;;;;;;;4.03;2.40;;;;;;;31.20;30.17;99563.16;5112278;28;20201;-69
2022/05/15 06:46:35;;;;;;;6.83;2.60;;;;;;;31.04;29.74;99564.81;5111984;28;20194;-69
2022/05/15 06:49:02;;;;;;;4.10;2.37;;;;;;;30.27;31.50;99562.22;5112653;28;20283;-69
2022/05/15 06:51:28;;;;;;;6.33;2.60;;;;;;;30.81;31.55;99569.72;5112079;28;20283;-68
2022/05/15 06:53:55;;;;;;;5.60;2.73;;;;;;;30.80;31.28;99561.81;5111866;28;20243;-68
2022/05/15 06:59:14;;;;;;;46.63;5.73;;;;;;;30.50;32.11;99566.34;5075287;28;20675;-68
2022/05/15 07:01:42;;;;;;;6.80;2.40;;;;;;;30.49;31.79;99563.97;5111834;28;20203;-68
2022/05/15 07:04:09;;;;;;;6.83;2.50;;;;;;;30.24;32.38;99562.84;5111836;28;20191;-69
2022/05/15 07:06:36;;;;;;;2.70;2.50;;;;;;;30.45;32.53;99563.78;5111976;28;20209;-69
2022/05/15 07:09:03;;;;;;;2.93;2.30;;;;;;;30.36;31.90;99557.50;5111728;28;20198;-69
2022/05/15 07:11:30;;;;;;;7.57;2.50;;;;;;;30.63;32.66;99570.06;5127493;28;20766;-69
2022/05/15 07:13:56;;;;;;;3.33;2.60;;;;;;;30.38;32.63;99563.47;5132213;27;20186;-67
2022/05/15 07:16:23;;;;;;;4.77;2.50;;;;;;;30.60;31.67;99577.00;5135853;27;20190;-67
2022/05/15 07:18:51;;;;;;;11.60;3.00;;;;;;;30.47;31.16;99561.53;5135962;27;20186;-67
2022/05/15 07:21:18;;;;;;;11.87;2.90;;;;;;;30.91;30.63;99571.31;5136578;27;20194;-67
2022/05/15 07:23:45;;;;;;;3.13;2.10;;;;;;;30.82;30.52;99563.09;5136429;27;20658;-67
2022/05/15 07:26:12;;;;;;;8.90;2.43;;;;;;;30.98;29.99;99571.59;5136930;27;20186;-68
2022/05/15 07:28:38;;;;;;;4.70;2.00;;;;;;;31.20;29.77;99569.41;5135423;27;20321;-68
2022/05/15 07:31:05;;;;;;;2.37;2.20;;;;;;;30.86;29.70;99572.28;5136348;27;20218;-67
2022/05/15 07:33:32;;;;;;;4.10;1.83;;;;;;;30.57;29.77;99571.34;5135593;27;20635;-67
2022/05/15 07:36:00;;;;;;;2.50;2.30;;;;;;;30.88;29.29;99564.56;5136605;27;20247;-67
2022/05/15 07:38:27;;;;;;;7.30;2.47;;;;;;;31.00;28.95;99574.84;5135564;27;20190;-68
2022/05/15 07:40:53;;;;;;;10.53;2.60;;;;;;;31.15;28.92;99571.56;5135503;27;20198;-67
2022/05/15 07:43:20;;;;;;;5.37;1.90;;;;;;;31.55;28.59;99576.41;5135260;27;20186;-67
2022/05/15 07:45:47;;;;;;;6.47;1.87;;;;;;;31.37;27.96;99571.31;5135603;27;20512;-67
2022/05/15 07:48:14;;;;;;;2.17;1.90;;;;;;;31.59;27.64;99560.06;5135323;27;20282;-67
2022/05/15 07:50:41;;;;;;;5.10;2.07;;;;;;;31.36;27.86;99572.47;5135644;27;20222;-67
2022/05/15 07:53:09;;;;;;;4.47;1.90;;;;;;;31.38;28.39;99565.50;5135609;27;20186;-67
2022/05/15 07:55:36;;;;;;;2.17;1.87;;;;;;;31.73;28.29;99564.16;5135594;27;20198;-67
2022/05/15 07:58:04;;;;;;;7.43;2.30;;;;;;;32.13;28.31;99565.38;5135548;27;20189;-67
2022/05/15 08:00:30;;;;;;;3.97;2.10;;;;;;;32.23;26.47;99575.97;5135443;27;20194;-67
2022/05/15 08:03:07;;;;;;;2.80;2.10;;;;;;;32.56;27.37;99576.84;5135146;27;20655;-67
2022/05/15 08:08:25;;;;;;;3.40;2.33;;;;;;;32.80;26.87;99579.69;5095468;27;20651;-68
2022/05/15 08:10:52;;;;;;;5.90;2.10;;;;;;;32.37;26.82;99576.50;5124738;27;20645;-68
2022/05/15 08:13:21;;;;;;;2.93;2.20;;;;;;;32.42;26.79;99573.56;5114652;28;20186;-68
2022/05/15 08:15:48;;;;;;;2.47;1.97;;;;;;;32.29;27.04;99577.38;5114398;28;20195;-68
2022/05/15 08:23:49;;;;;;;2.40;2.20;;;;;;;32.40;27.04;99575.03;5114720;28;20186;-67
2022/05/15 08:26:17;;;;;;;4.43;1.80;;;;;;;32.87;26.86;99577.16;5113026;28;20644;-67
2022/05/15 08:28:44;;;;;;;5.00;2.33;;;;;;;33.11;26.58;99574.47;5113770;28;20210;-67
2022/05/15 08:31:11;;;;;;;2.30;2.10;;;;;;;32.89;26.42;99577.66;5113944;28;20219;-67
2022/05/15 08:33:38;;;;;;;5.93;1.80;;;;;;;32.67;26.14;99580.75;5113618;28;20648;-67
2022/05/15 08:36:06;;;;;;;2.07;1.67;;;;;;;32.65;25.45;99585.81;5113992;28;20240;-67
2022/05/15 08:38:34;;;;;;;2.20;2.00;;;;;;;32.74;25.52;99578.25;5113400;28;20656;-68
2022/05/15 08:41:04;;;;;;;6.87;2.37;;;;;;;32.93;25.30;99573.06;5113567;28;20251;-67
2022/05/15 08:43:42;;;;;;;3.63;1.92;;;;;;;32.68;25.22;99576.88;5113876;28;20182;-68
2022/05/15 08:46:23;;;;;;;2.45;1.73;;;;;;;32.62;24.75;99578.22;5113289;28;20686;-67
2022/05/15 08:48:51;;;;;;;2.77;1.73;;;;;;;32.09;25.92;99569.91;5114061;28;20303;-67
2022/05/15 08:51:18;;;;;;;2.37;1.63;;;;;;;32.01;25.81;99562.53;5113790;28;20218;-67
2022/05/15 08:53:50;;;;;;;1.87;1.77;;;;;;;32.23;24.76;99578.72;5112521;28;20190;-68
2022/05/15 08:56:19;;;;;;;7.20;2.07;;;;;;;31.95;24.83;99577.63;5112501;28;20672;-67
2022/05/15 08:58:50;;;;;;;5.00;2.00;;;;;;;31.79;25.63;99582.13;5113855;28;20248;-68
2022/05/15 09:01:20;;;;;;;2.07;1.80;;;;;;;32.08;26.43;99573.81;5113224;28;20203;-67
2022/05/15 09:03:48;;;;;;;3.13;2.03;;;;;;;32.38;25.89;99569.06;5113311;28;20194;-68
2022/05/15 09:06:26;;;;;;;2.80;1.70;;;;;;;32.51;25.73;99571.50;5112567;28;20232;-68
2022/05/15 09:09:04;;;;;;;9.40;2.00;;;;;;;32.85;25.49;99571.22;5112422;28;20239;-68
2022/05/15 09:11:47;;;;;;;4.17;1.90;;;;;;;32.71;25.58;99564.38;5129878;27;20202;-67
2022/05/15 09:14:20;;;;;;;4.47;1.97;;;;;;;32.75;24.88;99568.84;5133716;27;20617;-68
2022/05/15 09:16:55;;;;;;;4.70;1.83;;;;;;;32.92;25.19;99557.69;5134019;27;20182;-68
2022/05/15 09:19:23;;;;;;;2.93;2.10;;;;;;;32.88;24.69;99570.53;5133959;27;20185;-68
2022/05/15 09:21:54;;;;;;;4.67;2.10;;;;;;;33.09;24.33;99563.00;5133065;27;20578;-68
2022/05/15 09:24:29;;;;;;;3.42;1.70;;;;;;;33.04;24.97;99556.91;5133653;27;20200;-68
2022/05/15 09:27:12;;;;;;;2.33;1.90;;;;;;;32.74;24.94;99563.69;5134572;27;20181;-69
2022/05/15 09:29:39;;;;;;;2.33;1.90;;;;;;;32.30;24.11;99557.00;5133684;27;20257;-68
2022/05/15 09:32:15;;;;;;;2.40;1.50;;;;;;;32.27;24.11;99560.41;5133686;27;20221;-68
2022/05/15 09:34:44;;;;;;;4.30;1.77;;;;;;;32.46;24.43;99557.19;5133467;27;20178;-68
2022/05/15 09:40:05;;;;;;;5.87;1.80;;;;;;;33.22;23.77;99548.09;5133358;27;20700;-68
2022/05/15 09:45:22;;;;;;;4.70;1.48;;;;;;;33.46;23.36;99557.53;5133743;27;20254;-68
2022/05/15 09:48:02;;;;;;;9.23;2.10;;;;;;;33.76;22.37;99550.63;5133080;27;20182;-68
2022/05/15 09:50:42;;;;;;;5.43;1.50;;;;;;;33.74;22.25;99547.41;5132815;27;20235;-69
2022/05/15 09:53:14;;;;;;;9.70;3.30;;;;;;;34.07;22.26;99539.75;5133896;27;20185;-68
2022/05/15 09:55:40;;;;;;;3.58;1.92;;;;;;;34.41;22.45;99536.47;5133221;27;20238;-69
2022/05/15 09:58:19;;;;;;;5.63;1.70;;;;;;;34.66;22.00;99535.19;5133691;27;20198;-70
2022/05/15 10:00:46;;;;;;;1.63;1.52;;;;;;;34.10;20.96;99536.31;5133565;27;20189;-70
2022/05/15 10:03:21;;;;;;;3.40;1.55;;;;;;;33.70;20.71;99544.53;5132670;27;20219;-69
2022/05/15 10:05:58;;;;;;;2.35;1.30;;;;;;;33.94;20.81;99538.19;5133266;27;20250;-70
2022/05/15 10:08:27;;;;;;;9.10;1.73;;;;;;;33.89;20.99;99532.94;5133307;27;20217;-70
2022/05/15 10:10:59;;;;;;;3.55;1.50;;;;;;;33.33;20.54;99538.25;5122413;27;20307;-69
2022/05/15 10:13:33;;;;;;;5.10;1.90;;;;;;;33.32;21.47;99537.78;5112744;28;20563;-69
2022/05/15 10:16:06;;;;;;;6.05;2.08;;;;;;;33.43;20.98;99541.69;5112643;28;20659;-69
2022/05/15 10:18:43;;;;;;;2.92;1.33;;;;;;;33.56;20.46;99535.03;5112501;28;20189;-69
2022/05/15 10:21:11;;;;;;;1.23;1.10;;;;;;;33.33;20.81;99527.22;5111726;28;20648;-69
2022/05/15 10:23:46;;;;;;;1.63;1.52;;;;;;;33.67;20.60;99527.91;5112889;28;20190;-69
2022/05/15 10:26:20;;;;;;;7.47;1.67;;;;;;;33.74;20.31;99517.88;5112191;28;20182;-69
2022/05/15 10:28:54;;;;;;;4.80;1.48;;;;;;;33.51;20.33;99519.53;5112781;28;20193;-69
2022/05/15 10:31:27;;;;;;;3.20;1.23;;;;;;;33.05;19.82;99511.72;5112124;28;20214;-69
2022/05/15 10:33:57;;;;;;;7.25;1.55;;;;;;;33.01;20.23;99514.34;5112093;28;20186;-69
2022/05/15 10:36:46;;;;;;;2.85;1.20;;;;;;;33.09;19.76;99520.88;5111916;28;20194;-69
2022/05/15 10:39:23;;;;;;;2.00;1.43;;;;;;;32.68;19.58;99512.78;5113357;28;20191;-69
2022/05/15 10:42:02;;;;;;;3.97;1.60;;;;;;;32.95;20.26;99514.94;5112039;28;20182;-69
2022/05/15 10:44:40;;;;;;;2.40;1.00;;;;;;;32.61;19.95;99510.59;5112417;28;20187;-69
2022/05/15 10:47:12;;;;;;;5.87;1.40;;;;;;;32.74;20.26;99509.47;5112055;28;20644;-69
2022/05/15 10:49:54;;;;;;;2.53;1.30;;;;;;;32.46;19.80;99508.47;5114115;28;20230;-69
2022/05/15 10:52:39;;;;;;;12.40;1.60;;;;;;;32.02;20.71;99487.22;5116342;28;20203;-69
2022/05/15 10:58:09;;;;;;;11.83;2.60;;;;;;;32.02;21.47;99492.72;5116735;28;20566;-70
2022/05/15 11:00:42;;;;;;;7.30;3.43;;;;;;;32.49;21.62;99495.97;5116431;28;20197;-69
2022/05/15 11:03:18;;;;;;;2.50;1.77;;;;;;;32.92;20.62;99493.56;5116778;28;20187;-70
2022/05/15 11:05:57;;;;;;;7.27;1.90;;;;;;;32.82;20.55;99489.31;5116239;28;20241;-69
2022/05/15 11:08:36;;;;;;;1.80;1.70;;;;;;;32.69;18.98;99495.94;5116368;28;20240;-69
2022/05/15 11:11:10;;;;;;;2.92;1.60;;;;;;;32.59;18.39;99490.84;5127991;27;20202;-69
2022/05/15 11:13:46;;;;;;;19.77;1.90;;;;;;;32.36;18.41;99492.41;5137207;27;20186;-68
2022/05/15 11:16:27;;;;;;;2.10;1.90;;;;;;;32.37;19.16;99485.75;5136847;27;20182;-70
2022/05/15 11:19:11;;;;;;;9.40;2.45;;;;;;;32.39;19.96;99480.72;5136078;27;20198;-68
2022/05/15 11:22:01;;;;;;;4.27;2.20;;;;;;;32.38;19.43;99481.06;5136650;27;20182;-69
2022/05/15 11:24:43;;;;;;;5.03;1.73;;;;;;;32.31;19.47;99484.38;5136227;27;20182;-68
2022/05/15 11:27:17;;;;;;;5.00;1.60;;;;;;;32.46;19.74;99474.69;5136456;27;20218;-68
2022/05/15 11:29:48;;;;;;;2.88;2.58;;;;;;;32.47;20.44;99479.03;5137194;27;20242;-68
2022/05/15 11:33:03;;;;;;;9.23;4.70;;;;;;;32.49;20.09;99472.03;5135845;27;20213;-69
2022/05/15 11:36:01;;;;;;;5.70;3.17;;;;;;;32.57;19.94;99478.56;5073038;28;20739;-70
2022/05/15 11:38:29;;;;;;;2.10;1.80;;;;;;;32.51;19.82;99450.47;5135701;27;20190;-70
2022/05/15 11:40:57;;;;;;;2.17;2.08;;;;;;;32.61;19.60;99472.06;5135840;27;20225;-68
2022/05/15 11:43:56;;;;;;;5.57;2.20;;;;;;;32.75;20.04;99469.78;5136390;27;20262;-70
2022/05/15 11:47:12;;;;;;;1.97;1.60;;;;;;;32.49;20.31;99458.28;5136046;27;20643;-69
2022/05/15 11:50:04;;;;;;;2.83;1.80;;;;;;;32.31;21.41;99451.38;5112444;27;20222;-70
2022/05/15 11:52:37;;;;;;;3.87;1.60;;;;;;;32.26;20.99;99448.78;5135645;27;20213;-69
2022/05/15 11:55:34;;;;;;;2.20;1.77;;;;;;;32.24;21.40;99462.09;5135919;27;20596;-69
2022/05/15 11:58:42;;;;;;;4.07;2.00;;;;;;;32.32;21.83;99450.22;5136092;27;20178;-69
2022/05/15 12:01:15;;;;;;;2.80;1.80;;;;;;;32.24;22.12;99445.59;5072420;28;20238;-70
2022/05/15 12:03:52;;;;;;;9.90;2.47;;;;;;;32.51;23.02;99444.97;5072318;28;20184;-70
2022/05/15 12:06:23;;;;;;;4.80;1.90;;;;;;;32.83;21.55;99452.38;5107151;27;20193;-69
2022/05/15 12:08:53;;;;;;;2.35;2.25;;;;;;;32.96;21.35;99445.72;5135397;27;20178;-69
2022/05/15 12:11:33;;;;;;;4.25;1.65;;;;;;;32.81;20.99;99449.19;5121198;27;20231;-68